Time;durP1;ratioP1;P1;durP2;ratioP2;P2;SDS_P1;SDS_P2;PMS_P1;PMS_P2;Temp;Humidity;BMP_temperature;BMP_pressure;BME280_temperature;BME280_humidity;BME280_pressure;Samples;Min_cycle;Max_cycle;Signal;HPM_P1;HPM_P2
2023/12/30 00:01:42;;;;;;;0.70;0.38;;;9.80;99.90;;;9.76;100.00;100511.22;5228298;28;20055;-51
2023/12/30 00:04:15;;;;;;;2.40;0.50;;;9.80;99.90;;;9.75;100.00;100522.47;5231329;28;20510;-49
2023/12/30 00:06:47;;;;;;;0.95;0.28;;;9.80;99.90;;;9.74;100.00;100518.97;5224832;28;20045;-51
2023/12/30 00:09:19;;;;;;;1.85;0.40;;;9.70;99.90;;;9.75;100.00;100509.44;5238771;28;20032;-55
2023/12/30 00:11:52;;;;;;;1.60;0.68;;;9.70;99.90;;;9.74;100.00;100518.97;5245243;28;20051;-51
2023/12/30 00:14:26;;;;;;;4.38;0.55;;;9.70;99.90;;;9.73;100.00;100525.03;5237098;28;20049;-50
2023/12/30 00:16:58;;;;;;;0.90;0.57;;;9.70;99.90;;;9.69;100.00;100512.72;5227667;28;20055;-50
2023/12/30 00:19:33;;;;;;;2.58;0.50;;;9.70;99.90;;;9.68;100.00;100523.09;5234108;28;20079;-50
2023/12/30 00:22:06;;;;;;;0.38;0.38;;;9.70;99.90;;;9.67;100.00;100513.53;5229562;28;20051;-50
2023/12/30 00:24:38;;;;;;;0.93;0.40;;;9.60;99.90;;;9.67;100.00;100521.34;5239147;28;20044;-50
2023/12/30 00:27:10;;;;;;;2.95;0.50;;;9.60;99.90;;;9.65;100.00;100520.38;5233017;28;20426;-51
2023/12/30 00:29:44;;;;;;;2.92;0.30;;;9.60;99.90;;;9.65;100.00;100529.09;5237417;28;20558;-49
2023/12/30 00:32:16;;;;;;;3.65;0.75;;;9.60;99.90;;;9.65;100.00;100528.19;5237777;28;20051;-50
2023/12/30 00:34:49;;;;;;;3.88;0.55;;;9.60;99.90;;;9.66;100.00;100523.06;5251057;28;20052;-51
2023/12/30 00:37:21;;;;;;;5.53;0.68;;;9.60;99.90;;;9.68;100.00;100517.91;5241026;28;20048;-49
2023/12/30 00:39:54;;;;;;;0.77;0.52;;;9.70;99.90;;;9.69;100.00;100519.66;5238121;28;20052;-49
2023/12/30 00:42:26;;;;;;;3.80;0.70;;;9.70;99.90;;;9.70;100.00;100521.41;5234736;28;20052;-51
2023/12/30 00:45:00;;;;;;;7.03;0.65;;;9.70;99.90;;;9.67;100.00;100522.22;5242303;22;20060;-78
2023/12/30 00:48:44;;;;;;;5.32;0.65;;;9.70;99.90;;;9.66;100.00;100524.78;5273652;27;20404;-48
2023/12/30 00:51:16;;;;;;;5.25;1.05;;;9.70;99.90;;;9.67;100.00;100526.53;5254734;28;20055;-49
2023/12/30 00:53:49;;;;;;;0.70;0.38;;;9.70;99.90;;;9.69;100.00;100533.56;5252583;28;20059;-50
2023/12/30 00:56:21;;;;;;;1.33;0.80;;;9.70;99.90;;;9.71;100.00;100539.69;5250840;28;20421;-49
2023/12/30 00:58:54;;;;;;;4.43;0.75;;;9.70;99.90;;;9.74;100.00;100538.94;5244564;28;20064;-47
2023/12/30 01:01:26;;;;;;;2.45;0.50;;;9.70;99.90;;;9.76;100.00;100539.84;5245372;28;20056;-48
2023/12/30 01:04:00;;;;;;;4.13;0.85;;;9.70;99.90;;;9.77;100.00;100542.50;5247642;28;20445;-48
2023/12/30 01:06:33;;;;;;;2.95;0.47;;;9.70;99.90;;;9.78;100.00;100540.81;5249834;28;20056;-49
2023/12/30 01:09:05;;;;;;;3.90;0.77;;;9.80;99.90;;;9.80;100.00;100557.34;5244380;28;20045;-48
2023/12/30 01:11:38;;;;;;;2.95;0.43;;;9.80;99.90;;;9.81;100.00;100561.72;5253973;28;20553;-49
2023/12/30 01:14:11;;;;;;;2.47;0.73;;;9.80;99.90;;;9.82;100.00;100553.06;5266045;28;20044;-49
2023/12/30 01:16:43;;;;;;;4.78;1.45;;;9.80;99.90;;;9.85;100.00;100563.59;5244515;28;20482;-49
2023/12/30 01:19:17;;;;;;;4.38;0.68;;;9.80;99.90;;;9.85;100.00;100563.59;5242403;28;20454;-49
2023/12/30 01:21:50;;;;;;;2.03;0.52;;;9.80;99.90;;;9.90;100.00;100561.13;5252716;28;20106;-49
2023/12/30 01:24:23;;;;;;;3.15;0.65;;;9.80;99.90;;;9.88;100.00;100571.50;5245398;28;20056;-48
2023/12/30 01:26:56;;;;;;;1.98;0.52;;;9.80;99.90;;;9.87;100.00;100579.28;5249167;28;20055;-48
2023/12/30 01:29:29;;;;;;;4.00;0.47;;;9.80;99.90;;;9.84;100.00;100577.44;5243063;28;20059;-49
2023/12/30 01:32:03;;;;;;;6.05;0.70;;;9.90;99.90;;;9.82;100.00;100579.09;5263035;28;20037;-48
2023/12/30 01:34:36;;;;;;;3.72;0.63;;;9.80;99.90;;;9.81;100.00;100566.03;5248096;28;20041;-48
2023/12/30 01:37:09;;;;;;;1.60;0.57;;;9.80;99.90;;;9.78;100.00;100564.25;5241842;28;20044;-49
2023/12/30 01:39:42;;;;;;;2.50;0.70;;;9.80;99.90;;;9.75;100.00;100571.94;5228333;28;20420;-48
2023/12/30 01:42:15;;;;;;;4.65;0.70;;;9.70;99.90;;;9.70;100.00;100573.47;5235501;28;20051;-48
2023/12/30 01:44:47;;;;;;;5.05;0.90;;;9.70;99.90;;;9.68;100.00;100573.44;5237787;28;20045;-49
2023/12/30 01:47:20;;;;;;;3.25;0.60;;;9.70;99.90;;;9.64;100.00;100568.94;5222898;28;20059;-48
2023/12/30 01:49:54;;;;;;;2.75;0.50;;;9.60;99.90;;;9.61;100.00;100579.25;5237293;28;20547;-48
2023/12/30 01:52:27;;;;;;;4.80;0.80;;;9.60;99.90;;;9.58;100.00;100579.13;5250879;28;20053;-48
2023/12/30 01:55:00;;;;;;;1.42;0.57;;;9.60;99.90;;;9.57;100.00;100584.28;5230912;28;20431;-48
2023/12/30 01:57:32;;;;;;;4.07;0.77;;;9.60;99.90;;;9.57;100.00;100586.88;5249295;28;20049;-48
2023/12/30 02:00:06;;;;;;;3.17;1.00;;;9.60;99.90;;;9.59;100.00;100600.88;5236978;28;20410;-49
2023/12/30 02:02:44;;;;;;;2.45;0.77;;;9.60;99.90;;;9.60;100.00;100598.31;5213348;28;20537;-49
2023/12/30 02:05:18;;;;;;;2.47;0.70;;;9.60;99.90;;;9.64;100.00;100604.50;5235660;28;20072;-48
2023/12/30 02:07:51;;;;;;;5.75;1.10;;;9.60;99.90;;;9.65;100.00;100611.47;5234638;28;20426;-48
2023/12/30 02:10:23;;;;;;;3.83;0.90;;;9.70;99.90;;;9.67;100.00;100612.44;5237904;28;20479;-48
2023/12/30 02:12:56;;;;;;;3.22;0.57;;;9.60;99.90;;;9.67;100.00;100625.44;5223580;28;20071;-49
2023/12/30 02:15:28;;;;;;;4.60;0.98;;;9.60;99.90;;;9.66;100.00;100618.47;5210205;28;20045;-48
2023/12/30 02:18:01;;;;;;;2.83;0.95;;;9.70;99.90;;;9.64;100.00;100625.31;5222222;28;20745;-48
2023/12/30 02:20:35;;;;;;;2.42;0.60;;;9.60;99.90;;;9.64;100.00;100635.72;5222941;28;20122;-48
2023/12/30 02:23:11;;;;;;;1.85;0.70;;;9.60;99.90;;;9.64;100.00;100633.13;5214925;28;20515;-48
2023/12/30 02:25:44;;;;;;;4.78;0.70;;;9.60;99.90;;;9.64;100.00;100635.72;5229919;28;20049;-48
2023/12/30 02:28:17;;;;;;;4.03;0.90;;;9.70;99.90;;;9.62;100.00;100632.19;5212962;28;20479;-48
2023/12/30 02:30:49;;;;;;;4.00;0.80;;;9.70;99.90;;;9.62;100.00;100632.19;5233772;28;20049;-48
2023/12/30 02:33:22;;;;;;;5.63;0.75;;;9.60;99.90;;;9.61;100.00;100635.63;5221030;28;20164;-48
2023/12/30 02:35:54;;;;;;;4.47;0.40;;;9.60;99.90;;;9.62;100.00;100633.06;5234488;28;20045;-48
2023/12/30 02:38:28;;;;;;;1.10;0.55;;;9.60;99.90;;;9.64;100.00;100635.72;5234675;28;20059;-48
2023/12/30 02:41:00;;;;;;;3.28;0.73;;;9.60;99.90;;;9.66;100.00;100631.47;5231964;28;20140;-49
2023/12/30 02:43:42;;;;;;;2.67;0.80;;;9.70;99.90;;;9.69;100.00;100639.38;5213301;28;20046;-49
2023/12/30 02:46:15;;;;;;;3.03;0.90;;;9.70;99.90;;;9.70;100.00;100641.16;5234142;28;20049;-48
2023/12/30 02:48:48;;;;;;;2.70;0.63;;;9.70;99.90;;;9.71;100.00;100638.59;5228578;28;20042;-49
2023/12/30 02:51:21;;;;;;;4.00;0.80;;;9.70;99.90;;;9.75;100.00;100644.81;5236554;28;20045;-48
2023/12/30 02:53:55;;;;;;;5.50;0.75;;;9.70;99.90;;;9.77;100.00;100648.34;5234567;28;20056;-47
2023/12/30 02:56:28;;;;;;;4.45;0.80;;;9.70;99.90;;;9.79;100.00;100642.38;5209359;28;20053;-48
2023/12/30 02:59:02;;;;;;;1.08;0.40;;;9.70;99.90;;;9.81;100.00;100638.94;5222157;28;20511;-48
2023/12/30 03:01:37;;;;;;;4.05;0.88;;;9.80;99.90;;;9.82;100.00;100638.97;5208662;28;20049;-48
2023/12/30 03:04:09;;;;;;;4.13;0.80;;;9.80;99.90;;;9.81;100.00;100637.22;5208350;28;20111;-48
2023/12/30 03:06:42;;;;;;;4.75;0.90;;;9.80;99.90;;;9.83;100.00;100653.78;5222289;28;20045;-49
2023/12/30 03:09:16;;;;;;;2.88;0.70;;;9.80;99.90;;;9.83;100.00;100652.88;5214679;28;20037;-47
2023/12/30 03:11:48;;;;;;;4.28;0.70;;;9.80;99.90;;;9.81;100.00;100658.03;5221487;28;20044;-48
2023/12/30 03:14:21;;;;;;;2.22;0.70;;;9.80;99.90;;;9.81;100.00;100650.25;5213045;28;20060;-48
2023/12/30 03:16:53;;;;;;;4.00;0.57;;;9.80;99.90;;;9.80;100.00;100643.25;5233839;28;20049;-48
2023/12/30 03:19:26;;;;;;;5.30;0.60;;;9.80;99.90;;;9.78;100.00;100640.63;5237430;28;20519;-49
2023/12/30 03:21:58;;;;;;;2.00;0.70;;;9.80;99.90;;;9.80;100.00;100653.69;5215941;28;20584;-48
2023/12/30 03:24:32;;;;;;;2.75;0.47;;;9.80;99.90;;;9.80;100.00;100661.47;5221136;28;20061;-51
2023/12/30 03:27:05;;;;;;;5.43;0.70;;;9.80;99.90;;;9.77;100.00;100654.44;5213729;28;20049;-48
2023/12/30 03:29:38;;;;;;;1.13;0.70;;;9.80;99.90;;;9.78;100.00;100656.22;5221369;28;20102;-49
2023/12/30 03:32:10;;;;;;;1.45;0.77;;;9.70;99.90;;;9.82;100.00;100662.41;5207114;28;20488;-49
2023/12/30 03:34:42;;;;;;;2.78;0.77;;;9.80;99.90;;;9.83;100.00;100652.88;5216802;28;20049;-49
2023/12/30 03:37:15;;;;;;;2.00;0.70;;;9.80;99.90;;;9.83;100.00;100656.38;5207799;28;20049;-49
2023/12/30 03:39:49;;;;;;;3.35;0.68;;;9.80;99.90;;;9.84;100.00;100662.47;5221570;28;20131;-50
2023/12/30 03:42:22;;;;;;;2.13;0.60;;;9.80;99.90;;;9.85;100.00;100653.84;5236861;28;20065;-49
2023/12/30 03:44:54;;;;;;;0.88;0.50;;;9.80;99.90;;;9.85;100.00;100644.31;5209574;28;20052;-49
2023/12/30 03:47:27;;;;;;;1.17;0.65;;;9.80;99.90;;;9.86;100.00;100653.91;5234587;28;20049;-50
2023/12/30 03:49:59;;;;;;;0.93;0.60;;;9.80;99.90;;;9.87;100.00;100657.38;5209029;28;20053;-51
2023/12/30 03:52:32;;;;;;;2.25;0.50;;;9.80;99.90;;;9.89;100.00;100650.50;5220436;28;20076;-52
2023/12/30 03:55:06;;;;;;;1.42;0.50;;;9.90;99.90;;;9.87;100.00;100650.44;5221323;28;20044;-50
2023/12/30 03:57:39;;;;;;;1.35;0.73;;;9.80;99.90;;;9.87;100.00;100650.44;5220266;28;20049;-50
2023/12/30 04:00:13;;;;;;;4.75;0.75;;;9.80;99.90;;;9.88;100.00;100657.44;5220096;28;20045;-50
2023/12/30 04:02:47;;;;;;;2.90;0.75;;;9.80;99.90;;;9.86;100.00;100653.00;5222473;28;20052;-49
2023/12/30 04:05:19;;;;;;;1.85;0.88;;;9.80;99.90;;;9.86;100.00;100664.31;5213901;28;20446;-49
2023/12/30 04:07:51;;;;;;;2.60;0.60;;;9.90;99.90;;;9.83;100.00;100658.97;5214879;28;20061;-48
2023/12/30 04:10:25;;;;;;;5.40;1.05;;;9.80;99.90;;;9.83;100.00;100669.38;5235921;28;20052;-49
2023/12/30 04:12:58;;;;;;;2.45;0.65;;;9.80;99.90;;;9.82;100.00;100664.13;5208250;28;20045;-50
2023/12/30 04:15:30;;;;;;;4.60;0.73;;;9.80;99.90;;;9.80;100.00;100664.09;5236494;28;20044;-47
2023/12/30 04:18:03;;;;;;;2.03;0.60;;;9.80;99.90;;;9.79;100.00;100671.00;5207483;28;20056;-51
2023/12/30 04:20:35;;;;;;;3.60;0.40;;;9.80;99.90;;;9.79;100.00;100667.53;5220261;28;20079;-50
2023/12/30 04:23:08;;;;;;;2.80;0.60;;;9.70;99.90;;;9.78;100.00;100671.84;5221278;28;20064;-50
2023/12/30 04:25:41;;;;;;;2.90;0.60;;;9.80;99.90;;;9.78;100.00;100666.66;5227321;28;20041;-50
2023/12/30 04:28:14;;;;;;;5.13;1.02;;;9.80;99.90;;;9.79;100.00;100667.53;5217226;28;20051;-49
2023/12/30 04:30:46;;;;;;;1.63;0.52;;;9.70;99.90;;;9.79;100.00;100667.53;5217431;28;20054;-48
2023/12/30 04:33:19;;;;;;;3.60;0.95;;;9.80;99.90;;;9.79;100.00;100659.72;5217515;28;20049;-50
2023/12/30 04:35:52;;;;;;;5.13;0.63;;;9.80;99.90;;;9.78;100.00;100665.75;5220950;28;20051;-49
2023/12/30 04:38:25;;;;;;;1.92;0.65;;;9.80;99.90;;;9.78;100.00;100666.66;5217826;28;20132;-50
2023/12/30 04:40:59;;;;;;;2.13;0.68;;;9.80;99.90;;;9.76;100.00;100675.22;5205565;28;20041;-50
2023/12/30 04:43:31;;;;;;;5.55;1.05;;;9.70;99.90;;;9.74;100.00;100669.97;5220972;28;20554;-49
2023/12/30 04:46:04;;;;;;;5.40;0.70;;;9.70;99.90;;;9.72;100.00;100670.75;5221733;28;20041;-50
2023/12/30 04:48:36;;;;;;;2.72;0.45;;;9.70;99.90;;;9.70;100.00;100677.59;5232473;28;20077;-50
2023/12/30 04:51:09;;;;;;;6.43;0.90;;;9.70;99.90;;;9.68;100.00;100679.25;5226088;28;20041;-50
2023/12/30 04:53:42;;;;;;;1.80;0.82;;;9.70;99.90;;;9.67;100.00;100674.88;5215973;28;20049;-49
2023/12/30 04:56:17;;;;;;;3.72;0.47;;;9.60;99.90;;;9.67;100.00;100673.16;5218612;28;20495;-49
2023/12/30 04:58:50;;;;;;;5.13;0.90;;;9.70;99.90;;;9.68;100.00;100681.88;5221373;28;20041;-48
2023/12/30 05:01:23;;;;;;;3.30;0.57;;;9.70;99.90;;;9.70;100.00;100688.88;5223400;28;20045;-50
2023/12/30 05:03:55;;;;;;;1.52;0.45;;;9.70;99.90;;;9.70;100.00;100686.28;5223039;28;20060;-49
2023/12/30 05:06:29;;;;;;;3.90;0.82;;;9.70;99.90;;;9.70;100.00;100693.22;5220095;28;20622;-48
2023/12/30 05:09:01;;;;;;;5.07;0.80;;;9.70;99.90;;;9.70;100.00;100695.81;5219961;28;20529;-49
2023/12/30 05:11:35;;;;;;;3.40;0.63;;;9.70;99.90;;;9.69;100.00;100692.31;5224316;28;20061;-49
2023/12/30 05:14:07;;;;;;;1.13;0.60;;;9.70;99.90;;;9.69;100.00;100692.31;5217920;28;20526;-49
2023/12/30 05:16:45;;;;;;;3.92;0.90;;;9.70;99.90;;;9.67;100.00;100688.78;5226347;28;20061;-48
2023/12/30 05:19:17;;;;;;;2.70;0.50;;;9.70;99.90;;;9.64;100.00;100685.16;5222424;28;20099;-49
2023/12/30 05:21:52;;;;;;;4.00;0.68;;;9.70;99.90;;;9.63;100.00;100681.69;5215319;28;20060;-49
2023/12/30 05:24:24;;;;;;;2.28;0.73;;;9.60;99.90;;;9.63;100.00;100686.00;5219441;28;20047;-51
2023/12/30 05:26:58;;;;;;;3.47;0.80;;;9.60;99.90;;;9.59;100.00;100678.94;5220015;28;20041;-50
2023/12/30 05:29:30;;;;;;;3.05;0.73;;;9.60;99.90;;;9.54;100.00;100696.09;5218436;28;20083;-49
2023/12/30 05:32:04;;;;;;;3.30;0.90;;;9.60;99.90;;;9.51;100.00;100697.72;5220630;28;20047;-49
2023/12/30 05:34:36;;;;;;;1.10;0.80;;;9.60;99.90;;;9.48;100.00;100697.63;5224053;28;20670;-49
2023/12/30 05:37:08;;;;;;;2.03;0.63;;;9.50;99.90;;;9.48;100.00;100702.84;5225981;28;20052;-50
2023/12/30 05:39:42;;;;;;;2.75;1.08;;;9.50;99.90;;;9.50;100.00;100700.28;5225765;28;20052;-51
2023/12/30 05:42:15;;;;;;;1.50;0.52;;;9.50;99.90;;;9.49;100.00;100699.38;5222230;28;20499;-50
2023/12/30 05:44:49;;;;;;;6.07;1.08;;;9.50;99.90;;;9.50;100.00;100695.97;5210685;28;20488;-50
2023/12/30 05:47:21;;;;;;;3.90;0.80;;;9.50;99.90;;;9.49;100.00;100704.59;5220690;28;20055;-50
2023/12/30 05:49:54;;;;;;;4.15;0.80;;;9.50;99.90;;;9.50;100.00;100698.56;5225427;28;20408;-49
2023/12/30 05:52:27;;;;;;;3.95;1.27;;;9.50;99.90;;;9.48;100.00;100702.84;5220891;28;20414;-49
2023/12/30 05:54:59;;;;;;;3.42;0.45;;;9.50;99.90;;;9.49;100.00;100709.81;5220569;28;20036;-49
2023/12/30 05:57:33;;;;;;;5.07;0.93;;;9.50;99.90;;;9.46;100.00;100701.91;5226139;28;20053;-50
2023/12/30 06:00:08;;;;;;;1.95;0.45;;;9.50;99.90;;;9.45;100.00;100715.75;5223106;28;20041;-49
2023/12/30 06:02:48;;;;;;;4.68;1.15;;;9.50;99.90;;;9.42;100.00;100713.00;5218379;28;20443;-50
2023/12/30 06:05:21;;;;;;;2.90;0.40;;;9.50;99.90;;;9.40;100.00;100725.06;5227689;28;20136;-49
2023/12/30 06:07:53;;;;;;;3.40;0.50;;;9.40;99.90;;;9.38;100.00;100726.72;5222896;28;20065;-50
2023/12/30 06:10:25;;;;;;;4.10;0.50;;;9.40;99.90;;;9.36;100.00;100728.38;5238311;28;20435;-50
2023/12/30 06:12:59;;;;;;;5.70;0.60;;;9.40;99.90;;;9.36;100.00;100737.91;5225151;28;20095;-50
2023/12/30 06:15:32;;;;;;;4.25;0.88;;;9.40;99.90;;;9.35;100.00;100730.94;5224796;28;20056;-49
2023/12/30 06:18:05;;;;;;;6.15;0.60;;;9.40;99.90;;;9.34;100.00;100732.66;5227371;28;20052;-49
2023/12/30 06:20:37;;;;;;;2.30;0.50;;;9.40;99.90;;;9.35;100.00;100737.00;5221569;28;20511;-50
2023/12/30 06:23:10;;;;;;;2.45;0.70;;;9.40;99.90;;;9.36;100.00;100732.69;5223023;28;20037;-50
2023/12/30 06:25:43;;;;;;;2.97;0.70;;;9.40;99.90;;;9.37;100.00;100732.75;5236250;28;20136;-48
2023/12/30 06:28:17;;;;;;;5.05;1.02;;;9.40;99.90;;;9.39;100.00;100738.00;5226928;28;20420;-49
2023/12/30 06:30:49;;;;;;;2.95;0.73;;;9.40;99.90;;;9.38;100.00;100731.91;5225170;28;20048;-49
2023/12/30 06:33:23;;;;;;;9.73;0.80;;;9.40;99.90;;;9.39;100.00;100733.72;5219934;28;20064;-50
2023/12/30 06:35:55;;;;;;;7.20;0.88;;;9.40;99.90;;;9.39;100.00;100738.91;5225533;28;20048;-49
2023/12/30 06:38:28;;;;;;;1.58;0.40;;;9.40;99.90;;;9.38;100.00;100742.31;5219110;28;20057;-50
2023/12/30 06:41:00;;;;;;;3.65;0.55;;;9.40;99.90;;;9.41;100.00;100744.16;5215689;28;20047;-50
2023/12/30 06:43:34;;;;;;;1.10;0.50;;;9.40;99.90;;;9.42;100.00;100744.22;5217815;28;20052;-49
2023/12/30 06:46:06;;;;;;;3.20;0.40;;;9.40;99.90;;;9.44;100.00;100747.75;5226129;28;20053;-50
2023/12/30 06:48:39;;;;;;;2.60;0.82;;;9.50;99.90;;;9.46;100.00;100751.34;5219826;28;20407;-48
2023/12/30 06:51:12;;;;;;;7.22;0.70;;;9.50;99.90;;;9.49;100.00;100748.84;5223103;28;20573;-50
2023/12/30 06:53:44;;;;;;;2.47;0.52;;;9.50;99.90;;;9.51;100.00;100754.97;5225271;28;20051;-50
2023/12/30 06:56:16;;;;;;;1.38;0.75;;;9.50;99.90;;;9.54;100.00;100768.94;5227849;28;20412;-50
2023/12/30 06:58:51;;;;;;;4.53;0.50;;;9.50;99.90;;;9.55;100.00;100761.19;5228924;28;20038;-49
2023/12/30 07:01:25;;;;;;;;;;;9.50;99.90;;;9.57;100.00;100769.94;5232801;28;20048;-49
2023/12/30 07:03:57;;;;;;;1.15;1.00;;;9.60;99.90;;;9.59;100.00;100763.09;5218479;28;20350;-49
2023/12/30 07:06:29;;;;;;;6.88;1.10;;;9.60;99.90;;;9.61;100.00;100770.97;5218938;28;20446;-49
2023/12/30 07:09:02;;;;;;;3.35;0.52;;;9.60;99.90;;;9.63;100.00;100775.38;5229838;28;20044;-48
2023/12/30 07:11:34;;;;;;;5.10;1.02;;;9.60;99.90;;;9.64;100.00;100773.66;5218324;28;20052;-48
2023/12/30 07:14:08;;;;;;;1.00;0.50;;;9.60;99.90;;;9.66;100.00;100785.03;5233221;28;20056;-49
2023/12/30 07:16:40;;;;;;;3.58;0.60;;;9.60;99.90;;;9.67;100.00;100789.41;5237744;28;20049;-49
2023/12/30 07:19:13;;;;;;;3.15;0.80;;;9.60;99.90;;;9.68;100.00;100794.66;5221177;28;20045;-49
2023/12/30 07:21:45;;;;;;;2.05;0.52;;;9.70;99.90;;;9.68;100.00;100806.81;5219623;28;20672;-49
2023/12/30 07:24:18;;;;;;;0.47;0.32;;;9.70;99.90;;;9.70;100.00;100802.53;5221023;28;20056;-49
2023/12/30 07:26:50;;;;;;;2.63;0.80;;;9.70;99.90;;;9.73;100.00;100821.78;5233243;28;20053;-48
2023/12/30 07:29:24;;;;;;;5.70;0.57;;;9.70;99.90;;;9.73;100.00;100816.56;5220058;28;20050;-48
2023/12/30 07:31:56;;;;;;;2.00;0.77;;;9.70;99.90;;;9.73;100.00;100808.75;5217523;28;20053;-50
2023/12/30 07:34:29;;;;;;;7.63;1.00;;;9.70;99.90;;;9.70;100.00;100803.41;5236342;28;20064;-49
2023/12/30 07:37:02;;;;;;;2.80;0.47;;;9.70;99.90;;;9.70;100.00;100799.94;5225148;28;20595;-48
2023/12/30 07:39:34;;;;;;;2.50;0.70;;;9.70;99.90;;;9.68;100.00;100812.88;5233054;28;20076;-50
2023/12/30 07:42:07;;;;;;;0.80;0.50;;;9.70;99.90;;;9.66;100.00;100818.88;5218524;28;20053;-50
2023/12/30 07:44:41;;;;;;;1.17;0.50;;;9.70;99.90;;;9.60;100.00;100810.81;5221111;28;20052;-48
2023/12/30 07:47:13;;;;;;;3.35;0.50;;;9.60;99.90;;;9.56;100.00;100812.41;5220661;28;20144;-49
2023/12/30 07:49:46;;;;;;;0.90;0.43;;;9.60;99.90;;;9.52;100.00;100814.03;5226778;28;20485;-50
2023/12/30 07:52:18;;;;;;;4.00;0.50;;;9.60;99.90;;;9.51;100.00;100812.22;5218974;28;20128;-48
2023/12/30 07:54:50;;;;;;;4.50;0.60;;;9.50;99.90;;;9.50;100.00;100819.97;5229456;28;20569;-49
2023/12/30 07:57:23;;;;;;;3.42;0.50;;;9.50;99.90;;;9.50;100.00;100820.84;5231645;28;20045;-49
2023/12/30 07:59:57;;;;;;;1.88;0.30;;;9.50;99.90;;;9.48;100.00;100819.03;5221274;28;20052;-49
2023/12/30 08:02:29;;;;;;;2.30;0.63;;;9.50;99.90;;;9.47;100.00;100825.97;5218532;28;20630;-50
2023/12/30 08:05:02;;;;;;;1.13;0.30;;;9.50;99.90;;;9.47;100.00;100830.28;5221234;28;20049;-49
2023/12/30 08:07:34;;;;;;;4.20;0.60;;;9.50;99.90;;;9.47;100.00;100825.97;5231382;28;20534;-48
2023/12/30 08:10:08;;;;;;;3.08;0.60;;;9.50;99.90;;;9.49;100.00;100844.22;5226642;28;20512;-49
2023/12/30 08:12:40;;;;;;;0.73;0.63;;;9.50;99.90;;;9.49;100.00;100845.13;5213806;28;20049;-48
2023/12/30 08:15:14;;;;;;;2.60;0.40;;;9.50;99.90;;;9.50;100.00;100846.88;5229121;28;20053;-48
2023/12/30 08:17:46;;;;;;;2.25;0.60;;;9.50;99.90;;;9.51;100.00;100848.66;5215545;28;20054;-49
2023/12/30 08:20:20;;;;;;;4.25;0.90;;;9.50;99.90;;;9.55;100.00;100848.78;5229273;28;20042;-48
2023/12/30 08:22:52;;;;;;;1.20;0.65;;;9.50;99.90;;;9.58;100.00;100852.38;5219058;28;20052;-49
2023/12/30 08:25:24;;;;;;;2.00;0.60;;;9.50;99.90;;;9.61;100.00;100852.53;5221835;28;20041;-48
2023/12/30 08:27:57;;;;;;;3.35;0.70;;;9.50;99.90;;;9.64;100.00;100849.13;5231899;28;20052;-48
2023/12/30 08:30:30;;;;;;;2.45;0.60;;;9.60;99.90;;;9.65;100.00;100858.72;5221433;28;20150;-48
2023/12/30 08:33:06;;;;;;;4.47;0.88;;;9.60;99.90;;;9.66;100.00;100866.63;5215905;28;20053;-49
2023/12/30 08:35:39;;;;;;;4.15;0.70;;;9.60;99.90;;;9.68;100.00;100864.06;5231668;28;20103;-49
2023/12/30 08:38:11;;;;;;;0.75;0.70;;;9.60;99.90;;;9.71;100.00;100866.78;5219839;28;20770;-49
2023/12/30 08:40:44;;;;;;;1.67;0.50;;;9.60;99.90;;;9.75;100.00;100860.88;5233195;28;20046;-48
2023/12/30 08:43:17;;;;;;;1.50;0.52;;;9.70;99.90;;;9.78;100.00;100863.63;5236428;28;20055;-48
2023/12/30 08:45:50;;;;;;;3.80;0.80;;;9.70;99.90;;;10.21;100.00;100866.13;5236357;28;20042;-49
2023/12/30 08:48:23;;;;;;;5.70;0.45;;;10.00;99.90;;;10.28;100.00;100867.25;5227731;28;20055;-49
2023/12/30 08:50:55;;;;;;;4.85;0.60;;;10.20;99.90;;;10.28;100.00;100864.66;5229809;28;20037;-49
2023/12/30 08:53:28;;;;;;;3.85;0.52;;;10.20;99.90;;;10.24;100.00;100866.28;5237695;28;20057;-49
2023/12/30 08:56:00;;;;;;;3.65;0.73;;;10.20;99.90;;;10.25;100.00;100873.25;5214310;28;20500;-49
2023/12/30 08:58:32;;;;;;;2.03;1.00;;;10.20;99.90;;;10.26;100.00;100879.34;5236585;28;20509;-49
2023/12/30 09:01:07;;;;;;;4.15;0.68;;;10.20;99.90;;;10.27;100.00;100875.91;5210705;28;20033;-48
2023/12/30 09:03:39;;;;;;;1.52;0.60;;;10.20;99.90;;;10.27;100.00;100873.31;5233255;28;20593;-49
2023/12/30 09:06:11;;;;;;;5.97;0.80;;;10.20;99.90;;;10.27;100.00;100883.72;5216995;28;20060;-49
2023/12/30 09:08:44;;;;;;;2.75;0.55;;;10.20;99.90;;;10.27;100.00;100876.78;5234151;28;20053;-48
2023/12/30 09:11:20;;;;;;;4.80;0.88;;;10.20;99.90;;;10.27;100.00;100879.41;5223267;28;20049;-48
2023/12/30 09:13:53;;;;;;;10.00;1.00;;;10.20;99.90;;;10.29;100.00;100884.66;5221007;28;20535;-49
2023/12/30 09:16:27;;;;;;;1.02;0.47;;;10.20;99.90;;;10.31;100.00;100888.22;5221844;28;20056;-49
2023/12/30 09:18:59;;;;;;;4.47;1.00;;;10.20;99.90;;;10.32;100.00;100887.41;5215087;28;20044;-48
2023/12/30 09:21:32;;;;;;;4.70;1.00;;;10.20;99.90;;;10.35;100.00;100890.09;5229033;28;20055;-49
2023/12/30 09:24:05;;;;;;;0.73;0.73;;;10.20;99.90;;;10.40;100.00;100888.56;5234046;28;20436;-48
2023/12/30 09:26:37;;;;;;;5.70;0.68;;;10.30;99.90;;;10.43;100.00;100893.91;5237558;28;20049;-48
2023/12/30 09:29:09;;;;;;;1.40;0.50;;;10.30;99.90;;;10.50;100.00;100895.91;5218086;28;20041;-48
2023/12/30 09:31:43;;;;;;;4.88;0.75;;;10.40;99.90;;;10.56;100.00;100903.94;5234799;28;20103;-49
2023/12/30 09:34:16;;;;;;;3.42;0.70;;;10.40;99.90;;;10.62;100.00;100899.75;5220398;28;20057;-49
2023/12/30 09:36:48;;;;;;;2.17;0.70;;;10.50;99.90;;;10.68;100.00;100897.38;5235047;28;20053;-49
2023/12/30 09:39:20;;;;;;;4.40;0.82;;;10.50;99.90;;;10.75;100.00;100901.97;5232650;28;20503;-49
2023/12/30 09:41:53;;;;;;;5.40;0.80;;;10.60;99.90;;;10.81;100.00;100903.09;5232624;28;20052;-48
2023/12/30 09:44:26;;;;;;;4.78;0.85;;;10.60;99.90;;;10.86;100.00;100903.25;5222135;28;20056;-48
2023/12/30 09:47:02;;;;;;;6.35;0.90;;;10.70;99.90;;;10.90;100.00;100899.94;5219166;28;20701;-51
2023/12/30 09:49:37;;;;;;;2.72;0.77;;;10.80;99.90;;;10.93;100.00;100905.25;5221006;28;20148;-49
2023/12/30 09:52:09;;;;;;;5.70;0.77;;;10.80;99.90;;;10.96;100.00;100910.59;5233958;28;20120;-50
2023/12/30 09:54:41;;;;;;;3.47;0.77;;;10.80;99.90;;;10.99;100.00;100902.84;5235335;28;20055;-48
2023/12/30 09:57:15;;;;;;;3.97;0.60;;;10.80;99.90;;;11.04;100.00;100906.50;5221752;28;20053;-50
2023/12/30 09:59:48;;;;;;;1.40;0.43;;;10.90;99.90;;;11.08;100.00;100908.41;5221972;28;20041;-48
2023/12/30 10:02:22;;;;;;;4.80;0.73;;;10.90;99.90;;;11.10;100.00;100905.84;5217980;28;20122;-49
2023/12/30 10:04:55;;;;;;;5.45;0.60;;;10.90;99.90;;;11.12;100.00;100910.25;5237695;28;20064;-48
2023/12/30 10:07:31;;;;;;;4.10;0.70;;;10.90;99.90;;;11.12;100.00;100905.03;5233188;28;20053;-49
2023/12/30 10:10:04;;;;;;;3.33;0.85;;;11.00;99.90;;;11.15;100.00;100899.06;5237331;28;20049;-49
2023/12/30 10:12:36;;;;;;;5.60;0.68;;;11.00;99.90;;;11.15;100.00;100893.84;5237007;28;20519;-50
2023/12/30 10:15:09;;;;;;;4.80;0.98;;;11.00;99.90;;;11.17;100.00;100897.38;5232688;28;20046;-49
2023/12/30 10:17:43;;;;;;;2.58;0.45;;;11.00;99.90;;;11.18;100.00;100893.06;5218164;28;20053;-51
2023/12/30 10:20:23;;;;;;;1.50;0.43;;;11.00;99.90;;;11.19;100.00;100903.53;5236274;28;20045;-48
2023/12/30 10:22:55;;;;;;;2.70;1.20;;;11.00;99.90;;;11.18;100.00;100893.06;5236428;28;20419;-48
2023/12/30 10:25:27;;;;;;;6.50;1.27;;;11.00;99.90;;;11.21;100.00;100894.03;5238853;28;20080;-49
2023/12/30 10:28:00;;;;;;;0.70;0.57;;;11.10;99.90;;;11.22;100.00;100888.00;5218245;28;20045;-49
2023/12/30 10:30:32;;;;;;;2.28;0.70;;;11.10;99.90;;;11.23;100.00;100883.66;5236245;28;20527;-50
2023/12/30 10:33:11;;;;;;;1.80;0.60;;;11.10;99.90;;;11.29;100.00;100882.16;5232179;28;20053;-49
2023/12/30 10:35:45;;;;;;;4.57;0.70;;;11.10;99.90;;;11.28;100.00;100884.69;5217302;28;20041;-48
2023/12/30 10:38:20;;;;;;;3.15;0.70;;;11.10;99.90;;;11.21;100.00;100882.69;5218733;28;20504;-49
2023/12/30 10:40:52;;;;;;;0.85;0.43;;;11.10;99.90;;;11.21;100.00;100875.75;5231990;28;20041;-49
2023/12/30 10:43:25;;;;;;;2.00;0.82;;;11.10;99.90;;;11.19;100.00;100872.22;5218399;28;20529;-49